sensor_id;sensor_type;location;lat;lon;timestamp;temperature;humidity
31038;DHT22;17702;47.590;7.666;2023-09-12T00:00:45;21.40;92.20
31038;DHT22;17702;47.590;7.666;2023-09-12T00:03:11;21.40;92.40
31038;DHT22;17702;47.590;7.666;2023-09-12T00:05:36;21.30;92.60
31038;DHT22;17702;47.590;7.666;2023-09-12T00:08:02;21.30;92.90
31038;DHT22;17702;47.590;7.666;2023-09-12T00:10:29;21.30;92.90
31038;DHT22;17702;47.590;7.666;2023-09-12T00:12:55;21.20;93.00
31038;DHT22;17702;47.590;7.666;2023-09-12T00:15:21;21.20;92.80
31038;DHT22;17702;47.590;7.666;2023-09-12T00:17:46;21.10;92.90
31038;DHT22;17702;47.590;7.666;2023-09-12T00:20:14;21.00;93.20
31038;DHT22;17702;47.590;7.666;2023-09-12T00:22:39;21.00;93.50
31038;DHT22;17702;47.590;7.666;2023-09-12T00:25:05;20.90;93.60
31038;DHT22;17702;47.590;7.666;2023-09-12T00:27:31;20.90;93.80
31038;DHT22;17702;47.590;7.666;2023-09-12T00:29:57;21.00;94.00
31038;DHT22;17702;47.590;7.666;2023-09-12T00:32:22;21.00;93.90
31038;DHT22;17702;47.590;7.666;2023-09-12T00:34:48;20.90;94.10
31038;DHT22;17702;47.590;7.666;2023-09-12T00:37:13;20.90;94.20
31038;DHT22;17702;47.590;7.666;2023-09-12T00:39:39;20.90;94.30
31038;DHT22;17702;47.590;7.666;2023-09-12T00:42:04;21.00;94.30
31038;DHT22;17702;47.590;7.666;2023-09-12T00:44:33;21.00;94.40
31038;DHT22;17702;47.590;7.666;2023-09-12T00:47:00;21.00;94.20
31038;DHT22;17702;47.590;7.666;2023-09-12T00:49:26;21.00;94.40
31038;DHT22;17702;47.590;7.666;2023-09-12T00:51:54;20.90;94.10
31038;DHT22;17702;47.590;7.666;2023-09-12T00:54:21;20.90;94.20
31038;DHT22;17702;47.590;7.666;2023-09-12T00:56:47;20.90;94.30
31038;DHT22;17702;47.590;7.666;2023-09-12T00:59:15;20.80;94.50
31038;DHT22;17702;47.590;7.666;2023-09-12T01:01:43;20.80;94.60
31038;DHT22;17702;47.590;7.666;2023-09-12T01:04:09;20.70;94.70
31038;DHT22;17702;47.590;7.666;2023-09-12T01:06:35;20.70;94.90
31038;DHT22;17702;47.590;7.666;2023-09-12T01:09:02;20.70;95.10
31038;DHT22;17702;47.590;7.666;2023-09-12T01:11:28;20.80;95.40
31038;DHT22;17702;47.590;7.666;2023-09-12T01:13:53;20.80;95.60
31038;DHT22;17702;47.590;7.666;2023-09-12T01:16:19;20.80;95.40
31038;DHT22;17702;47.590;7.666;2023-09-12T01:18:45;20.90;95.50
31038;DHT22;17702;47.590;7.666;2023-09-12T01:21:43;21.00;95.70
31038;DHT22;17702;47.590;7.666;2023-09-12T01:24:38;21.00;96.10
31038;DHT22;17702;47.590;7.666;2023-09-12T01:27:27;21.10;95.80
31038;DHT22;17702;47.590;7.666;2023-09-12T01:30:02;21.10;95.80
31038;DHT22;17702;47.590;7.666;2023-09-12T01:32:32;21.10;95.80
31038;DHT22;17702;47.590;7.666;2023-09-12T01:34:57;21.10;96.20
31038;DHT22;17702;47.590;7.666;2023-09-12T01:37:23;21.10;96.40
31038;DHT22;17702;47.590;7.666;2023-09-12T01:39:49;21.20;96.50
31038;DHT22;17702;47.590;7.666;2023-09-12T01:42:16;21.20;96.70
31038;DHT22;17702;47.590;7.666;2023-09-12T01:44:44;21.20;96.30
31038;DHT22;17702;47.590;7.666;2023-09-12T01:47:11;21.20;96.40
31038;DHT22;17702;47.590;7.666;2023-09-12T01:49:40;21.30;95.80
31038;DHT22;17702;47.590;7.666;2023-09-12T01:52:06;21.30;95.80
31038;DHT22;17702;47.590;7.666;2023-09-12T01:54:33;21.40;95.60
31038;DHT22;17702;47.590;7.666;2023-09-12T01:57:00;21.40;95.50
31038;DHT22;17702;47.590;7.666;2023-09-12T01:59:27;21.50;95.10
31038;DHT22;17702;47.590;7.666;2023-09-12T02:01:53;21.50;95.30
31038;DHT22;17702;47.590;7.666;2023-09-12T02:04:19;21.50;95.20
31038;DHT22;17702;47.590;7.666;2023-09-12T02:06:44;21.50;95.20
31038;DHT22;17702;47.590;7.666;2023-09-12T02:09:10;21.50;95.40
31038;DHT22;17702;47.590;7.666;2023-09-12T02:11:35;21.50;95.50
31038;DHT22;17702;47.590;7.666;2023-09-12T02:14:01;21.50;94.90
31038;DHT22;17702;47.590;7.666;2023-09-12T02:16:26;21.70;95.20
31038;DHT22;17702;47.590;7.666;2023-09-12T02:18:52;21.60;94.60
31038;DHT22;17702;47.590;7.666;2023-09-12T02:21:18;21.70;94.50
31038;DHT22;17702;47.590;7.666;2023-09-12T02:23:43;21.60;94.70
31038;DHT22;17702;47.590;7.666;2023-09-12T02:26:09;21.60;94.50
31038;DHT22;17702;47.590;7.666;2023-09-12T02:28:35;21.70;94.30
31038;DHT22;17702;47.590;7.666;2023-09-12T02:31:00;21.80;94.30
31038;DHT22;17702;47.590;7.666;2023-09-12T02:33:26;21.70;94.60
31038;DHT22;17702;47.590;7.666;2023-09-12T02:35:51;21.80;94.70
31038;DHT22;17702;47.590;7.666;2023-09-12T02:38:18;21.70;94.90
31038;DHT22;17702;47.590;7.666;2023-09-12T02:40:43;21.70;94.80
31038;DHT22;17702;47.590;7.666;2023-09-12T02:43:09;21.70;95.10
31038;DHT22;17702;47.590;7.666;2023-09-12T02:45:34;21.60;95.30
31038;DHT22;17702;47.590;7.666;2023-09-12T02:48:00;21.50;95.40
31038;DHT22;17702;47.590;7.666;2023-09-12T02:50:25;21.50;95.60
31038;DHT22;17702;47.590;7.666;2023-09-12T02:52:51;21.60;95.80
31038;DHT22;17702;47.590;7.666;2023-09-12T02:55:17;21.60;95.90
31038;DHT22;17702;47.590;7.666;2023-09-12T02:57:42;21.50;96.00
31038;DHT22;17702;47.590;7.666;2023-09-12T03:00:08;21.50;96.10
31038;DHT22;17702;47.590;7.666;2023-09-12T03:02:34;21.50;96.10
31038;DHT22;17702;47.590;7.666;2023-09-12T03:05:00;21.50;95.60
31038;DHT22;17702;47.590;7.666;2023-09-12T03:07:27;21.50;95.80
31038;DHT22;17702;47.590;7.666;2023-09-12T03:09:52;21.50;95.90
31038;DHT22;17702;47.590;7.666;2023-09-12T03:12:18;21.50;95.60
31038;DHT22;17702;47.590;7.666;2023-09-12T03:14:43;21.40;95.80
31038;DHT22;17702;47.590;7.666;2023-09-12T03:17:09;21.40;95.90
31038;DHT22;17702;47.590;7.666;2023-09-12T03:19:34;21.30;96.00
31038;DHT22;17702;47.590;7.666;2023-09-12T03:22:00;21.40;96.10
31038;DHT22;17702;47.590;7.666;2023-09-12T03:24:25;21.40;96.30
31038;DHT22;17702;47.590;7.666;2023-09-12T03:26:54;21.50;95.70
31038;DHT22;17702;47.590;7.666;2023-09-12T03:29:19;21.50;95.20
31038;DHT22;17702;47.590;7.666;2023-09-12T03:31:45;21.50;95.80
31038;DHT22;17702;47.590;7.666;2023-09-12T03:34:11;21.50;95.40
31038;DHT22;17702;47.590;7.666;2023-09-12T03:36:36;21.40;95.70
31038;DHT22;17702;47.590;7.666;2023-09-12T03:39:02;21.40;95.90
31038;DHT22;17702;47.590;7.666;2023-09-12T03:41:30;21.40;96.00
31038;DHT22;17702;47.590;7.666;2023-09-12T03:43:56;21.40;95.90
31038;DHT22;17702;47.590;7.666;2023-09-12T03:46:22;21.40;96.50
31038;DHT22;17702;47.590;7.666;2023-09-12T03:48:48;21.40;96.40
31038;DHT22;17702;47.590;7.666;2023-09-12T03:51:14;21.30;96.20
31038;DHT22;17702;47.590;7.666;2023-09-12T03:53:40;21.30;96.50
31038;DHT22;17702;47.590;7.666;2023-09-12T03:56:05;21.30;96.60
31038;DHT22;17702;47.590;7.666;2023-09-12T03:58:31;21.20;96.90
31038;DHT22;17702;47.590;7.666;2023-09-12T04:00:57;21.20;97.00
31038;DHT22;17702;47.590;7.666;2023-09-12T04:03:23;21.20;97.10
31038;DHT22;17702;47.590;7.666;2023-09-12T04:05:50;21.20;97.10
31038;DHT22;17702;47.590;7.666;2023-09-12T04:08:16;21.20;97.10
31038;DHT22;17702;47.590;7.666;2023-09-12T04:10:43;21.20;97.30
31038;DHT22;17702;47.590;7.666;2023-09-12T04:13:08;21.20;97.40
31038;DHT22;17702;47.590;7.666;2023-09-12T04:15:34;21.10;97.70
31038;DHT22;17702;47.590;7.666;2023-09-12T04:18:00;21.20;97.70
31038;DHT22;17702;47.590;7.666;2023-09-12T04:20:25;21.20;97.50
31038;DHT22;17702;47.590;7.666;2023-09-12T04:22:51;21.20;97.60
31038;DHT22;17702;47.590;7.666;2023-09-12T04:25:17;21.10;97.60
31038;DHT22;17702;47.590;7.666;2023-09-12T04:27:45;21.20;97.80
31038;DHT22;17702;47.590;7.666;2023-09-12T04:30:11;21.20;97.80
31038;DHT22;17702;47.590;7.666;2023-09-12T04:32:37;21.10;97.80
31038;DHT22;17702;47.590;7.666;2023-09-12T04:35:02;21.00;97.80
31038;DHT22;17702;47.590;7.666;2023-09-12T04:37:28;21.00;98.00
31038;DHT22;17702;47.590;7.666;2023-09-12T04:39:54;21.00;98.10
31038;DHT22;17702;47.590;7.666;2023-09-12T04:42:20;20.90;98.00
31038;DHT22;17702;47.590;7.666;2023-09-12T04:44:46;20.80;98.10
31038;DHT22;17702;47.590;7.666;2023-09-12T04:47:11;20.70;98.10
31038;DHT22;17702;47.590;7.666;2023-09-12T04:49:38;20.70;98.40
31038;DHT22;17702;47.590;7.666;2023-09-12T04:52:04;20.70;98.60
31038;DHT22;17702;47.590;7.666;2023-09-12T04:54:30;20.70;98.70
31038;DHT22;17702;47.590;7.666;2023-09-12T04:56:55;20.70;98.80
31038;DHT22;17702;47.590;7.666;2023-09-12T04:59:21;20.70;98.90
31038;DHT22;17702;47.590;7.666;2023-09-12T05:01:47;20.70;99.00
31038;DHT22;17702;47.590;7.666;2023-09-12T05:04:12;20.70;98.70
31038;DHT22;17702;47.590;7.666;2023-09-12T05:06:38;20.70;99.00
31038;DHT22;17702;47.590;7.666;2023-09-12T05:09:05;20.70;98.80
31038;DHT22;17702;47.590;7.666;2023-09-12T05:11:31;20.70;98.90
31038;DHT22;17702;47.590;7.666;2023-09-12T05:13:57;20.80;98.80
31038;DHT22;17702;47.590;7.666;2023-09-12T05:16:22;20.80;99.00
31038;DHT22;17702;47.590;7.666;2023-09-12T05:18:48;20.90;99.10
31038;DHT22;17702;47.590;7.666;2023-09-12T05:21:14;20.90;99.10
31038;DHT22;17702;47.590;7.666;2023-09-12T05:23:40;20.80;98.90
31038;DHT22;17702;47.590;7.666;2023-09-12T05:26:06;20.80;99.30
31038;DHT22;17702;47.590;7.666;2023-09-12T05:28:31;20.80;99.40
31038;DHT22;17702;47.590;7.666;2023-09-12T05:30:57;20.80;99.20
31038;DHT22;17702;47.590;7.666;2023-09-12T05:33:23;20.90;99.60
31038;DHT22;17702;47.590;7.666;2023-09-12T05:35:48;20.90;99.40
31038;DHT22;17702;47.590;7.666;2023-09-12T05:38:14;20.90;99.60
31038;DHT22;17702;47.590;7.666;2023-09-12T05:40:39;20.90;99.50
31038;DHT22;17702;47.590;7.666;2023-09-12T05:43:05;20.90;99.50
31038;DHT22;17702;47.590;7.666;2023-09-12T05:45:31;20.90;99.60
31038;DHT22;17702;47.590;7.666;2023-09-12T05:47:58;20.90;99.80
31038;DHT22;17702;47.590;7.666;2023-09-12T05:50:24;20.90;99.90
31038;DHT22;17702;47.590;7.666;2023-09-12T05:52:49;21.00;99.90
31038;DHT22;17702;47.590;7.666;2023-09-12T05:55:15;21.00;99.90
31038;DHT22;17702;47.590;7.666;2023-09-12T05:57:41;21.00;99.90
31038;DHT22;17702;47.590;7.666;2023-09-12T06:00:07;21.10;99.90
31038;DHT22;17702;47.590;7.666;2023-09-12T06:02:40;21.10;99.90
31038;DHT22;17702;47.590;7.666;2023-09-12T06:05:06;21.20;99.90
31038;DHT22;17702;47.590;7.666;2023-09-12T06:07:32;21.30;99.90
31038;DHT22;17702;47.590;7.666;2023-09-12T06:09:58;21.40;99.90
31038;DHT22;17702;47.590;7.666;2023-09-12T06:12:23;21.50;99.90
31038;DHT22;17702;47.590;7.666;2023-09-12T06:14:49;21.50;99.90
31038;DHT22;17702;47.590;7.666;2023-09-12T06:17:15;21.60;99.90
31038;DHT22;17702;47.590;7.666;2023-09-12T06:19:40;21.60;99.80
31038;DHT22;17702;47.590;7.666;2023-09-12T06:22:10;21.70;99.40
31038;DHT22;17702;47.590;7.666;2023-09-12T06:24:35;21.70;99.20
31038;DHT22;17702;47.590;7.666;2023-09-12T06:27:01;21.80;99.40
31038;DHT22;17702;47.590;7.666;2023-09-12T06:29:27;21.90;99.30
31038;DHT22;17702;47.590;7.666;2023-09-12T06:31:52;22.00;99.90
31038;DHT22;17702;47.590;7.666;2023-09-12T06:34:20;22.00;99.90
31038;DHT22;17702;47.590;7.666;2023-09-12T06:36:45;22.00;99.90
31038;DHT22;17702;47.590;7.666;2023-09-12T06:39:11;22.00;99.90
31038;DHT22;17702;47.590;7.666;2023-09-12T06:41:37;22.00;99.90
31038;DHT22;17702;47.590;7.666;2023-09-12T06:44:03;22.10;99.90
31038;DHT22;17702;47.590;7.666;2023-09-12T06:46:30;22.10;99.90
31038;DHT22;17702;47.590;7.666;2023-09-12T06:48:56;22.20;99.90
31038;DHT22;17702;47.590;7.666;2023-09-12T06:51:25;22.10;99.90
31038;DHT22;17702;47.590;7.666;2023-09-12T06:53:52;22.10;99.90
31038;DHT22;17702;47.590;7.666;2023-09-12T06:56:18;22.10;99.90
31038;DHT22;17702;47.590;7.666;2023-09-12T06:58:44;22.10;99.90
31038;DHT22;17702;47.590;7.666;2023-09-12T07:01:09;22.10;99.90
31038;DHT22;17702;47.590;7.666;2023-09-12T07:03:36;22.10;99.90
31038;DHT22;17702;47.590;7.666;2023-09-12T07:06:02;22.20;99.90
31038;DHT22;17702;47.590;7.666;2023-09-12T07:08:30;22.20;99.90
31038;DHT22;17702;47.590;7.666;2023-09-12T07:10:56;22.30;99.90
31038;DHT22;17702;47.590;7.666;2023-09-12T07:13:23;22.30;99.90
31038;DHT22;17702;47.590;7.666;2023-09-12T07:15:50;22.40;99.90
31038;DHT22;17702;47.590;7.666;2023-09-12T07:18:15;22.60;99.90
31038;DHT22;17702;47.590;7.666;2023-09-12T07:20:41;22.70;99.90
31038;DHT22;17702;47.590;7.666;2023-09-12T07:23:07;22.70;99.70
31038;DHT22;17702;47.590;7.666;2023-09-12T07:25:39;22.80;99.20
31038;DHT22;17702;47.590;7.666;2023-09-12T07:28:08;22.80;99.70
31038;DHT22;17702;47.590;7.666;2023-09-12T07:30:34;23.00;99.70
31038;DHT22;17702;47.590;7.666;2023-09-12T07:33:00;23.00;98.70
31038;DHT22;17702;47.590;7.666;2023-09-12T07:35:25;23.10;98.50
31038;DHT22;17702;47.590;7.666;2023-09-12T07:37:51;23.10;98.70
31038;DHT22;17702;47.590;7.666;2023-09-12T07:40:16;23.20;98.40
31038;DHT22;17702;47.590;7.666;2023-09-12T07:42:42;23.30;98.30
31038;DHT22;17702;47.590;7.666;2023-09-12T07:45:08;23.50;98.90
31038;DHT22;17702;47.590;7.666;2023-09-12T07:47:34;23.70;97.60
31038;DHT22;17702;47.590;7.666;2023-09-12T07:50:00;23.90;98.10
31038;DHT22;17702;47.590;7.666;2023-09-12T07:52:29;24.10;97.50
31038;DHT22;17702;47.590;7.666;2023-09-12T07:54:59;24.30;97.40
31038;DHT22;17702;47.590;7.666;2023-09-12T07:57:25;24.50;97.50
31038;DHT22;17702;47.590;7.666;2023-09-12T07:59:50;24.70;97.30
31038;DHT22;17702;47.590;7.666;2023-09-12T08:02:16;24.80;96.20
31038;DHT22;17702;47.590;7.666;2023-09-12T08:04:42;24.90;95.40
31038;DHT22;17702;47.590;7.666;2023-09-12T08:07:07;25.10;95.30
31038;DHT22;17702;47.590;7.666;2023-09-12T08:09:49;25.20;95.40
31038;DHT22;17702;47.590;7.666;2023-09-12T08:12:15;25.40;95.90
31038;DHT22;17702;47.590;7.666;2023-09-12T08:14:40;25.50;96.60
31038;DHT22;17702;47.590;7.666;2023-09-12T08:17:06;25.60;96.70
31038;DHT22;17702;47.590;7.666;2023-09-12T08:19:32;25.80;96.50
31038;DHT22;17702;47.590;7.666;2023-09-12T08:21:57;26.00;95.40
31038;DHT22;17702;47.590;7.666;2023-09-12T08:24:23;26.10;95.00
31038;DHT22;17702;47.590;7.666;2023-09-12T08:26:48;26.20;95.20
31038;DHT22;17702;47.590;7.666;2023-09-12T08:29:15;26.20;94.70
31038;DHT22;17702;47.590;7.666;2023-09-12T08:31:40;26.40;94.60
31038;DHT22;17702;47.590;7.666;2023-09-12T08:34:06;26.50;93.00
31038;DHT22;17702;47.590;7.666;2023-09-12T08:36:31;26.50;92.60
31038;DHT22;17702;47.590;7.666;2023-09-12T08:38:57;26.60;92.30
31038;DHT22;17702;47.590;7.666;2023-09-12T08:41:22;26.70;92.70
31038;DHT22;17702;47.590;7.666;2023-09-12T08:43:48;26.80;93.70
31038;DHT22;17702;47.590;7.666;2023-09-12T08:46:15;26.90;93.50
31038;DHT22;17702;47.590;7.666;2023-09-12T08:48:42;27.10;92.20
31038;DHT22;17702;47.590;7.666;2023-09-12T08:51:09;27.30;91.80
31038;DHT22;17702;47.590;7.666;2023-09-12T08:53:35;27.40;92.80
31038;DHT22;17702;47.590;7.666;2023-09-12T08:56:01;27.50;92.80
31038;DHT22;17702;47.590;7.666;2023-09-12T08:58:30;27.70;91.70
31038;DHT22;17702;47.590;7.666;2023-09-12T09:00:57;27.80;90.90
31038;DHT22;17702;47.590;7.666;2023-09-12T09:03:23;27.80;91.10
31038;DHT22;17702;47.590;7.666;2023-09-12T09:05:49;27.90;91.60
31038;DHT22;17702;47.590;7.666;2023-09-12T09:08:17;28.10;90.50
31038;DHT22;17702;47.590;7.666;2023-09-12T09:11:01;28.30;89.60
31038;DHT22;17702;47.590;7.666;2023-09-12T09:13:32;28.40;88.90
31038;DHT22;17702;47.590;7.666;2023-09-12T09:16:15;28.40;87.50
31038;DHT22;17702;47.590;7.666;2023-09-12T09:21:22;28.40;83.30
31038;DHT22;17702;47.590;7.666;2023-09-12T09:23:54;28.40;81.90
31038;DHT22;17702;47.590;7.666;2023-09-12T09:26:20;28.50;81.00
31038;DHT22;17702;47.590;7.666;2023-09-12T09:29:02;28.60;78.80
31038;DHT22;17702;47.590;7.666;2023-09-12T09:31:28;28.60;74.60
31038;DHT22;17702;47.590;7.666;2023-09-12T09:33:55;28.60;67.40
31038;DHT22;17702;47.590;7.666;2023-09-12T09:36:20;28.60;66.00
31038;DHT22;17702;47.590;7.666;2023-09-12T09:38:46;28.70;67.90
31038;DHT22;17702;47.590;7.666;2023-09-12T09:41:12;28.70;66.20
31038;DHT22;17702;47.590;7.666;2023-09-12T09:43:37;28.70;64.00
31038;DHT22;17702;47.590;7.666;2023-09-12T09:46:03;28.80;65.60
31038;DHT22;17702;47.590;7.666;2023-09-12T09:48:29;28.90;61.30
31038;DHT22;17702;47.590;7.666;2023-09-12T09:51:01;29.00;63.50
31038;DHT22;17702;47.590;7.666;2023-09-12T09:53:30;29.10;60.90
31038;DHT22;17702;47.590;7.666;2023-09-12T09:58:32;29.40;63.40
31038;DHT22;17702;47.590;7.666;2023-09-12T10:00:59;29.40;61.40
31038;DHT22;17702;47.590;7.666;2023-09-12T10:03:25;29.50;60.80
31038;DHT22;17702;47.590;7.666;2023-09-12T10:05:55;29.50;61.60
31038;DHT22;17702;47.590;7.666;2023-09-12T10:08:23;29.50;59.50
31038;DHT22;17702;47.590;7.666;2023-09-12T10:10:51;29.50;59.50
31038;DHT22;17702;47.590;7.666;2023-09-12T10:13:18;29.50;58.40
31038;DHT22;17702;47.590;7.666;2023-09-12T10:15:47;29.50;56.20
31038;DHT22;17702;47.590;7.666;2023-09-12T10:18:19;29.50;57.20
31038;DHT22;17702;47.590;7.666;2023-09-12T10:20:52;29.50;58.30
31038;DHT22;17702;47.590;7.666;2023-09-12T10:26:22;29.40;58.00
31038;DHT22;17702;47.590;7.666;2023-09-12T10:28:49;29.60;59.20
31038;DHT22;17702;47.590;7.666;2023-09-12T10:31:16;29.50;59.70
31038;DHT22;17702;47.590;7.666;2023-09-12T10:33:43;29.60;57.80
31038;DHT22;17702;47.590;7.666;2023-09-12T10:36:11;29.60;55.90
31038;DHT22;17702;47.590;7.666;2023-09-12T10:38:42;29.80;60.20
31038;DHT22;17702;47.590;7.666;2023-09-12T10:41:11;29.70;55.20
31038;DHT22;17702;47.590;7.666;2023-09-12T10:43:40;29.70;57.30
31038;DHT22;17702;47.590;7.666;2023-09-12T10:46:06;29.80;55.80
31038;DHT22;17702;47.590;7.666;2023-09-12T10:48:33;29.90;56.60
31038;DHT22;17702;47.590;7.666;2023-09-12T10:51:00;29.90;55.60
31038;DHT22;17702;47.590;7.666;2023-09-12T10:53:26;30.00;56.30
31038;DHT22;17702;47.590;7.666;2023-09-12T10:56:18;30.00;56.10
31038;DHT22;17702;47.590;7.666;2023-09-12T11:01:42;30.00;56.90
31038;DHT22;17702;47.590;7.666;2023-09-12T11:06:50;29.80;56.70
31038;DHT22;17702;47.590;7.666;2023-09-12T11:09:24;29.80;58.80
31038;DHT22;17702;47.590;7.666;2023-09-12T11:12:01;29.80;60.20
31038;DHT22;17702;47.590;7.666;2023-09-12T11:14:28;29.80;57.60
31038;DHT22;17702;47.590;7.666;2023-09-12T11:17:23;29.90;54.10
31038;DHT22;17702;47.590;7.666;2023-09-12T11:19:51;30.00;58.40
31038;DHT22;17702;47.590;7.666;2023-09-12T11:22:25;29.90;55.90
31038;DHT22;17702;47.590;7.666;2023-09-12T11:24:51;29.90;56.90
31038;DHT22;17702;47.590;7.666;2023-09-12T11:27:17;29.90;51.50
31038;DHT22;17702;47.590;7.666;2023-09-12T11:29:43;29.70;51.40
31038;DHT22;17702;47.590;7.666;2023-09-12T11:32:08;29.70;52.10
31038;DHT22;17702;47.590;7.666;2023-09-12T11:37:03;29.50;50.60
31038;DHT22;17702;47.590;7.666;2023-09-12T11:39:35;29.50;50.70
31038;DHT22;17702;47.590;7.666;2023-09-12T11:42:02;29.40;50.60
31038;DHT22;17702;47.590;7.666;2023-09-12T11:44:29;29.50;49.90
31038;DHT22;17702;47.590;7.666;2023-09-12T11:46:59;29.40;51.30
31038;DHT22;17702;47.590;7.666;2023-09-12T11:49:35;29.40;52.70
31038;DHT22;17702;47.590;7.666;2023-09-12T11:52:02;29.40;54.90
31038;DHT22;17702;47.590;7.666;2023-09-12T11:54:29;29.40;53.50
31038;DHT22;17702;47.590;7.666;2023-09-12T11:56:57;29.50;57.00
31038;DHT22;17702;47.590;7.666;2023-09-12T11:59:31;29.50;54.80
31038;DHT22;17702;47.590;7.666;2023-09-12T12:01:57;29.60;54.60
31038;DHT22;17702;47.590;7.666;2023-09-12T12:04:24;29.70;53.60
31038;DHT22;17702;47.590;7.666;2023-09-12T12:06:51;29.70;55.00
31038;DHT22;17702;47.590;7.666;2023-09-12T12:09:18;29.70;55.40
31038;DHT22;17702;47.590;7.666;2023-09-12T12:11:45;29.80;50.90
31038;DHT22;17702;47.590;7.666;2023-09-12T12:14:16;29.80;51.10
31038;DHT22;17702;47.590;7.666;2023-09-12T12:16:43;29.80;54.90
31038;DHT22;17702;47.590;7.666;2023-09-12T12:19:12;29.80;55.40
31038;DHT22;17702;47.590;7.666;2023-09-12T12:21:42;29.90;55.40
31038;DHT22;17702;47.590;7.666;2023-09-12T12:24:11;30.00;54.60
31038;DHT22;17702;47.590;7.666;2023-09-12T12:26:41;30.10;54.30
31038;DHT22;17702;47.590;7.666;2023-09-12T12:29:07;30.20;52.30
31038;DHT22;17702;47.590;7.666;2023-09-12T12:31:34;30.20;54.80
31038;DHT22;17702;47.590;7.666;2023-09-12T12:34:00;30.40;55.40
31038;DHT22;17702;47.590;7.666;2023-09-12T12:36:25;30.40;54.60
31038;DHT22;17702;47.590;7.666;2023-09-12T12:38:52;30.50;54.80
31038;DHT22;17702;47.590;7.666;2023-09-12T12:41:29;30.70;54.60
31038;DHT22;17702;47.590;7.666;2023-09-12T12:43:57;30.80;54.80
31038;DHT22;17702;47.590;7.666;2023-09-12T12:46:27;30.90;54.60
31038;DHT22;17702;47.590;7.666;2023-09-12T12:48:54;31.00;52.30
31038;DHT22;17702;47.590;7.666;2023-09-12T12:51:25;31.10;52.60
31038;DHT22;17702;47.590;7.666;2023-09-12T12:53:54;31.10;52.80
31038;DHT22;17702;47.590;7.666;2023-09-12T12:56:30;31.10;51.00
31038;DHT22;17702;47.590;7.666;2023-09-12T12:58:58;31.20;52.50
31038;DHT22;17702;47.590;7.666;2023-09-12T13:01:24;31.30;53.00
31038;DHT22;17702;47.590;7.666;2023-09-12T13:03:50;31.40;50.60
31038;DHT22;17702;47.590;7.666;2023-09-12T13:06:17;31.30;50.50
31038;DHT22;17702;47.590;7.666;2023-09-12T13:08:46;31.10;51.70
31038;DHT22;17702;47.590;7.666;2023-09-12T13:11:13;31.10;51.00
31038;DHT22;17702;47.590;7.666;2023-09-12T13:13:40;31.20;51.10
31038;DHT22;17702;47.590;7.666;2023-09-12T13:16:08;31.20;50.10
31038;DHT22;17702;47.590;7.666;2023-09-12T13:18:38;31.30;52.30
31038;DHT22;17702;47.590;7.666;2023-09-12T13:21:04;31.40;50.50
31038;DHT22;17702;47.590;7.666;2023-09-12T13:23:29;31.50;49.50
31038;DHT22;17702;47.590;7.666;2023-09-12T13:25:56;31.50;51.00
31038;DHT22;17702;47.590;7.666;2023-09-12T13:28:22;31.60;47.90
31038;DHT22;17702;47.590;7.666;2023-09-12T13:30:54;31.70;45.20
31038;DHT22;17702;47.590;7.666;2023-09-12T13:33:20;31.70;46.80
31038;DHT22;17702;47.590;7.666;2023-09-12T13:35:49;31.80;48.40
31038;DHT22;17702;47.590;7.666;2023-09-12T13:38:16;31.90;46.40
31038;DHT22;17702;47.590;7.666;2023-09-12T13:40:44;32.00;48.10
31038;DHT22;17702;47.590;7.666;2023-09-12T13:43:10;32.00;47.90
31038;DHT22;17702;47.590;7.666;2023-09-12T13:45:36;32.00;48.20
31038;DHT22;17702;47.590;7.666;2023-09-12T13:48:03;32.10;49.30
31038;DHT22;17702;47.590;7.666;2023-09-12T13:50:29;32.00;48.20
31038;DHT22;17702;47.590;7.666;2023-09-12T13:52:55;32.00;50.10
31038;DHT22;17702;47.590;7.666;2023-09-12T13:55:21;32.00;46.20
31038;DHT22;17702;47.590;7.666;2023-09-12T13:57:47;32.00;44.80
31038;DHT22;17702;47.590;7.666;2023-09-12T14:00:13;32.00;46.30
31038;DHT22;17702;47.590;7.666;2023-09-12T14:02:39;31.90;46.90
31038;DHT22;17702;47.590;7.666;2023-09-12T14:05:04;31.90;45.80
31038;DHT22;17702;47.590;7.666;2023-09-12T14:07:30;32.00;47.10
31038;DHT22;17702;47.590;7.666;2023-09-12T14:09:56;31.80;46.30
31038;DHT22;17702;47.590;7.666;2023-09-12T14:12:23;31.90;48.50
31038;DHT22;17702;47.590;7.666;2023-09-12T14:14:49;31.80;46.80
31038;DHT22;17702;47.590;7.666;2023-09-12T14:17:14;31.80;45.40
31038;DHT22;17702;47.590;7.666;2023-09-12T14:19:40;31.80;46.90
31038;DHT22;17702;47.590;7.666;2023-09-12T14:22:05;31.80;47.20
31038;DHT22;17702;47.590;7.666;2023-09-12T14:24:31;31.80;47.10
31038;DHT22;17702;47.590;7.666;2023-09-12T14:26:57;31.80;47.40
31038;DHT22;17702;47.590;7.666;2023-09-12T14:29:22;31.80;47.30
31038;DHT22;17702;47.590;7.666;2023-09-12T14:31:49;31.80;46.80
31038;DHT22;17702;47.590;7.666;2023-09-12T14:34:18;31.80;49.60
31038;DHT22;17702;47.590;7.666;2023-09-12T14:36:44;31.80;47.80
31038;DHT22;17702;47.590;7.666;2023-09-12T14:39:11;31.80;49.10
31038;DHT22;17702;47.590;7.666;2023-09-12T14:41:37;31.80;48.90
31038;DHT22;17702;47.590;7.666;2023-09-12T14:44:03;31.80;48.90
31038;DHT22;17702;47.590;7.666;2023-09-12T14:46:30;31.70;49.40
31038;DHT22;17702;47.590;7.666;2023-09-12T14:48:56;31.60;48.40
31038;DHT22;17702;47.590;7.666;2023-09-12T14:51:21;31.60;49.70
31038;DHT22;17702;47.590;7.666;2023-09-12T14:53:47;31.60;49.80
31038;DHT22;17702;47.590;7.666;2023-09-12T14:56:12;31.40;49.30
31038;DHT22;17702;47.590;7.666;2023-09-12T14:58:38;31.40;48.50
31038;DHT22;17702;47.590;7.666;2023-09-12T15:01:04;31.30;49.80
31038;DHT22;17702;47.590;7.666;2023-09-12T15:03:30;31.30;51.30
31038;DHT22;17702;47.590;7.666;2023-09-12T15:05:56;31.20;51.20
31038;DHT22;17702;47.590;7.666;2023-09-12T15:08:21;31.10;47.90
31038;DHT22;17702;47.590;7.666;2023-09-12T15:10:47;31.10;47.40
31038;DHT22;17702;47.590;7.666;2023-09-12T15:13:13;31.10;49.90
31038;DHT22;17702;47.590;7.666;2023-09-12T15:15:39;31.10;50.60
31038;DHT22;17702;47.590;7.666;2023-09-12T15:18:05;31.00;51.80
31038;DHT22;17702;47.590;7.666;2023-09-12T15:20:32;31.00;52.00
31038;DHT22;17702;47.590;7.666;2023-09-12T15:22:57;31.00;52.00
31038;DHT22;17702;47.590;7.666;2023-09-12T15:25:23;30.90;51.20
31038;DHT22;17702;47.590;7.666;2023-09-12T15:27:48;30.90;51.80
31038;DHT22;17702;47.590;7.666;2023-09-12T15:30:14;30.90;49.30
31038;DHT22;17702;47.590;7.666;2023-09-12T15:32:41;30.80;50.50
31038;DHT22;17702;47.590;7.666;2023-09-12T15:35:07;30.80;51.80
31038;DHT22;17702;47.590;7.666;2023-09-12T15:37:33;30.70;50.20
31038;DHT22;17702;47.590;7.666;2023-09-12T15:39:59;30.60;51.90
31038;DHT22;17702;47.590;7.666;2023-09-12T15:42:25;30.50;53.90
31038;DHT22;17702;47.590;7.666;2023-09-12T15:44:50;30.40;54.90